createdAt,value
2018-09-19T00:01:18.790Z,9.23
2018-09-19T00:03:22.442Z,9.30
2018-09-19T00:05:26.114Z,9.70
2018-09-19T00:07:29.828Z,7.40
2018-09-19T00:09:33.517Z,7.77
2018-09-19T00:11:37.295Z,8.00
2018-09-19T00:13:41.041Z,7.50
2018-09-19T00:15:44.718Z,8.77
2018-09-19T00:17:48.398Z,8.20
2018-09-19T00:19:52.041Z,9.17
2018-09-19T00:21:55.784Z,8.90
2018-09-19T00:23:59.594Z,8.20
2018-09-19T00:26:03.252Z,10.10
2018-09-19T00:28:07.022Z,9.33
2018-09-19T00:30:10.723Z,9.40
2018-09-19T00:32:14.447Z,9.80
2018-09-19T00:34:18.112Z,9.43
2018-09-19T00:36:21.760Z,9.40
2018-09-19T00:38:25.486Z,9.53
2018-09-19T00:40:29.157Z,9.97
2018-09-19T00:42:32.837Z,9.40
2018-09-19T00:44:36.538Z,9.50
2018-09-19T00:46:40.246Z,10.30
2018-09-19T00:48:43.946Z,8.93
2018-09-19T00:50:47.611Z,8.43
2018-09-19T00:52:51.325Z,8.83
2018-09-19T00:54:54.999Z,8.03
2018-09-19T00:56:58.673Z,8.40
2018-09-19T00:59:02.324Z,9.60
2018-09-19T01:01:06.092Z,9.10
2018-09-19T01:03:09.799Z,8.83
2018-09-19T01:05:13.451Z,8.87
2018-09-19T01:07:17.169Z,8.97
2018-09-19T01:09:20.814Z,8.80
2018-09-19T01:11:24.481Z,8.93
2018-09-19T01:13:28.227Z,8.90
2018-09-19T01:15:31.884Z,9.47
2018-09-19T01:17:35.634Z,9.10
2018-09-19T01:19:39.259Z,8.37
2018-09-19T01:21:42.928Z,9.40
2018-09-19T01:23:46.621Z,9.30
2018-09-19T01:25:50.343Z,10.33
2018-09-19T01:27:54.040Z,9.00
2018-09-19T01:29:57.718Z,9.83
2018-09-19T01:32:01.609Z,8.57
2018-09-19T01:34:05.370Z,9.33
2018-09-19T01:36:09.281Z,10.00
2018-09-19T01:38:12.980Z,8.97
2018-09-19T01:40:16.620Z,9.40
2018-09-19T01:42:21.041Z,9.80
2018-09-19T01:44:24.715Z,9.20
2018-09-19T01:46:28.386Z,8.40
2018-09-19T01:48:32.054Z,8.70
2018-09-19T01:50:35.683Z,9.37
2018-09-19T01:52:39.379Z,9.10
2018-09-19T01:54:43.023Z,8.93
2018-09-19T01:56:46.669Z,8.50
2018-09-19T01:58:50.337Z,9.10
2018-09-19T02:00:53.968Z,9.13
2018-09-19T02:02:57.655Z,10.20
2018-09-19T02:05:01.293Z,9.70
2018-09-19T02:07:04.978Z,8.90
2018-09-19T02:09:10.881Z,9.13
2018-09-19T02:11:14.546Z,9.30
2018-09-19T02:13:18.292Z,9.33
2018-09-19T02:15:21.979Z,8.70
2018-09-19T02:17:25.732Z,8.23
2018-09-19T02:19:29.380Z,9.20
2018-09-19T02:21:33.046Z,9.33
2018-09-19T02:23:36.781Z,8.50
2018-09-19T02:25:40.433Z,9.33
2018-09-19T02:27:44.109Z,7.80
2018-09-19T02:29:47.783Z,9.30
2018-09-19T02:31:51.501Z,8.30
2018-09-19T02:33:55.603Z,8.73
2018-09-19T02:35:59.330Z,8.20
2018-09-19T02:38:03.013Z,9.10
2018-09-19T02:40:06.750Z,8.70
2018-09-19T02:42:10.385Z,8.70
2018-09-19T02:44:14.075Z,8.90
2018-09-19T02:46:17.747Z,8.70
2018-09-19T02:48:21.461Z,8.00
2018-09-19T02:50:25.121Z,8.20
2018-09-19T02:52:28.807Z,8.77
2018-09-19T02:54:32.541Z,8.50
2018-09-19T02:56:36.183Z,8.33
2018-09-19T02:58:39.880Z,7.50
2018-09-19T03:00:43.968Z,8.40
2018-09-19T03:02:47.727Z,8.57
2018-09-19T03:04:51.416Z,8.53
2018-09-19T03:06:55.066Z,8.67
2018-09-19T03:08:58.742Z,7.87
2018-09-19T03:11:02.398Z,8.50
2018-09-19T03:13:06.106Z,8.53
2018-09-19T03:15:09.787Z,8.60
2018-09-19T03:17:13.546Z,9.57
2018-09-19T03:19:17.183Z,8.60
2018-09-19T03:21:20.853Z,9.17
2018-09-19T03:23:24.575Z,9.07
2018-09-19T03:25:28.262Z,8.40
2018-09-19T03:27:31.930Z,8.60
2018-09-19T03:29:35.612Z,8.80
2018-09-19T03:31:39.591Z,8.83
2018-09-19T03:33:43.704Z,8.87
2018-09-19T03:35:47.391Z,8.97
2018-09-19T03:37:51.113Z,9.00
2018-09-19T03:39:55.012Z,9.30
2018-09-19T03:41:58.654Z,9.80
2018-09-19T03:44:02.359Z,9.27
2018-09-19T03:46:06.760Z,9.90
2018-09-19T03:48:10.568Z,8.57
2018-09-19T03:50:14.287Z,8.33
2018-09-19T03:52:17.988Z,8.83
2018-09-19T03:54:21.744Z,8.10
2018-09-19T03:56:28.688Z,8.50
2018-09-19T03:58:32.438Z,9.23
2018-09-19T04:00:36.445Z,8.80
2018-09-19T04:02:40.116Z,8.53
2018-09-19T04:04:43.801Z,8.10
2018-09-19T04:06:47.465Z,9.73
2018-09-19T04:08:51.146Z,9.30
2018-09-19T04:10:55.168Z,7.47
2018-09-19T04:12:58.894Z,9.30
2018-09-19T04:15:02.608Z,8.30
2018-09-19T04:17:06.579Z,8.37
2018-09-19T04:19:10.443Z,8.87
2018-09-19T04:21:14.660Z,8.27
2018-09-19T04:23:18.327Z,10.07
2018-09-19T04:25:22.214Z,9.67
2018-09-19T04:27:25.941Z,8.77
2018-09-19T04:29:29.683Z,8.60
2018-09-19T04:31:33.372Z,9.00
2018-09-19T04:33:37.065Z,8.47
2018-09-19T04:35:41.155Z,8.90
2018-09-19T04:37:45.236Z,9.90
2018-09-19T04:39:48.958Z,8.17
2018-09-19T04:41:52.640Z,8.67
2018-09-19T04:43:56.662Z,9.23
2018-09-19T04:46:00.353Z,8.80
2018-09-19T04:48:04.360Z,8.93
2018-09-19T04:50:08.440Z,8.23
2018-09-19T04:52:12.271Z,7.70
2018-09-19T04:54:16.037Z,8.53
2018-09-19T04:56:19.778Z,8.70
2018-09-19T04:58:23.571Z,9.27
2018-09-19T05:00:27.393Z,10.37
2018-09-19T05:02:31.122Z,10.13
2018-09-19T05:04:34.901Z,10.63
2018-09-19T05:06:38.601Z,9.03
2018-09-19T05:08:43.175Z,8.80
2018-09-19T05:10:46.934Z,9.63
2018-09-19T05:12:50.589Z,10.40
2018-09-19T05:14:54.492Z,10.10
2018-09-19T05:16:58.208Z,8.73
2018-09-19T05:19:02.016Z,8.80
2018-09-19T05:21:05.736Z,9.13
2018-09-19T05:23:09.448Z,9.43
2018-09-19T05:25:13.245Z,9.00
2018-09-19T05:27:16.986Z,8.87
2018-09-19T05:29:20.729Z,8.37
2018-09-19T05:31:24.480Z,10.20
2018-09-19T05:33:28.244Z,8.77
2018-09-19T05:35:31.980Z,9.67
2018-09-19T05:37:35.806Z,8.10
2018-09-19T05:39:39.566Z,8.37
2018-09-19T05:41:43.265Z,8.93
2018-09-19T05:43:47.013Z,9.70
2018-09-19T05:45:50.796Z,8.70
2018-09-19T05:47:54.553Z,9.00
2018-09-19T05:49:58.308Z,8.67
2018-09-19T05:52:02.063Z,9.17
2018-09-19T05:54:05.805Z,8.67
2018-09-19T05:56:09.556Z,9.90
2018-09-19T05:58:13.270Z,8.60
2018-09-19T06:00:17.335Z,8.87
2018-09-19T06:02:21.011Z,8.87
2018-09-19T06:04:24.850Z,9.10
2018-09-19T06:06:28.732Z,9.80
2018-09-19T06:08:32.416Z,9.10
2018-09-19T06:10:36.122Z,9.30
2018-09-19T06:12:39.805Z,9.77
2018-09-19T06:14:43.559Z,9.43
2018-09-19T06:16:47.235Z,9.57
2018-09-19T06:18:51.193Z,9.60
2018-09-19T06:20:54.912Z,9.13
2018-09-19T06:22:58.574Z,10.30
2018-09-19T06:25:02.244Z,10.70
2018-09-19T06:27:05.938Z,10.23
2018-09-19T06:29:09.608Z,10.73
2018-09-19T06:31:13.299Z,10.70
2018-09-19T06:33:17.752Z,10.50
2018-09-19T06:35:22.808Z,10.13
2018-09-19T06:37:26.515Z,10.77
2018-09-19T06:39:30.244Z,9.97
2018-09-19T06:41:33.956Z,10.07
2018-09-19T06:43:37.962Z,10.70
2018-09-19T06:45:41.769Z,10.20
2018-09-19T06:47:45.394Z,10.70
2018-09-19T06:49:49.097Z,9.90
2018-09-19T06:51:52.779Z,9.97
2018-09-19T06:53:56.630Z,10.70
2018-09-19T06:56:00.326Z,12.53
2018-09-19T06:58:04.001Z,12.80
2018-09-19T07:00:08.001Z,11.07
2018-09-19T07:02:11.667Z,10.10
2018-09-19T07:04:15.380Z,12.03
2018-09-19T07:06:19.049Z,9.73
2018-09-19T07:08:22.773Z,9.83
2018-09-19T07:10:26.505Z,9.73
2018-09-19T07:12:30.177Z,9.70
2018-09-19T07:14:33.889Z,10.40
2018-09-19T07:16:37.544Z,9.23
2018-09-19T07:18:41.253Z,8.23
2018-09-19T07:20:44.957Z,7.90
2018-09-19T07:22:48.681Z,9.07
2018-09-19T07:24:52.393Z,8.67
2018-09-19T07:26:56.077Z,10.43
2018-09-19T07:28:59.842Z,8.70
2018-09-19T07:31:03.685Z,8.67
2018-09-19T07:33:07.291Z,8.77
2018-09-19T07:35:11.002Z,7.53
2018-09-19T07:37:14.674Z,8.97
2018-09-19T07:39:18.384Z,8.90
2018-09-19T07:41:22.075Z,9.17
2018-09-19T07:43:25.769Z,8.30
2018-09-19T07:45:29.528Z,8.90
2018-09-19T07:47:33.181Z,9.10
2018-09-19T07:49:36.925Z,7.70
2018-09-19T07:51:40.691Z,8.00
2018-09-19T07:53:44.403Z,7.80
2018-09-19T07:55:48.101Z,7.80
2018-09-19T07:57:51.773Z,8.47
2018-09-19T07:59:55.542Z,8.00
2018-09-19T08:01:59.209Z,8.53
2018-09-19T08:04:02.903Z,7.33
2018-09-19T08:06:06.654Z,7.60
2018-09-19T08:08:10.308Z,6.97
2018-09-19T08:10:14.008Z,7.60
2018-09-19T08:12:17.723Z,6.50
2018-09-19T08:14:21.422Z,6.00
2018-09-19T08:16:25.094Z,6.27
2018-09-19T08:18:28.791Z,5.30
2018-09-19T08:20:32.483Z,5.50
2018-09-19T08:22:36.184Z,5.80
2018-09-19T08:24:39.831Z,5.77
2018-09-19T08:26:43.544Z,6.43
2018-09-19T08:28:47.215Z,6.37
2018-09-19T08:30:50.878Z,5.27
2018-09-19T08:32:54.538Z,5.47
2018-09-19T08:34:58.325Z,5.37
2018-09-19T08:37:01.989Z,5.30
2018-09-19T08:39:08.313Z,5.03
2018-09-19T08:41:12.029Z,5.67
2018-09-19T08:43:15.777Z,5.07
2018-09-19T08:45:19.555Z,5.17
2018-09-19T08:47:23.217Z,4.77
2018-09-19T08:49:26.859Z,5.40
2018-09-19T08:51:30.545Z,5.00
2018-09-19T08:53:34.224Z,5.10
2018-09-19T08:55:37.921Z,5.17
2018-09-19T08:57:41.546Z,5.23
2018-09-19T08:59:45.212Z,5.00
2018-09-19T09:01:48.918Z,4.50
2018-09-19T09:03:52.577Z,4.43
2018-09-19T09:05:56.252Z,4.57
2018-09-19T09:07:59.912Z,4.50
2018-09-19T09:10:03.700Z,4.70
2018-09-19T09:12:07.356Z,4.20
2018-09-19T09:14:11.040Z,4.60
2018-09-19T09:16:14.784Z,5.13
2018-09-19T09:18:18.451Z,3.90
2018-09-19T09:20:22.107Z,4.70
2018-09-19T09:22:26.149Z,4.03
2018-09-19T09:24:29.778Z,4.50
2018-09-19T09:26:33.537Z,3.40
2018-09-19T09:28:38.007Z,3.60
2018-09-19T09:30:41.680Z,3.80
2018-09-19T09:32:45.392Z,3.90
2018-09-19T09:34:49.040Z,3.93
2018-09-19T09:36:52.832Z,3.77
2018-09-19T09:38:56.419Z,3.50
2018-09-19T09:41:00.149Z,3.47
2018-09-19T09:43:03.792Z,3.80
2018-09-19T09:45:07.492Z,3.60
2018-09-19T09:47:11.159Z,4.10
2018-09-19T09:49:14.829Z,3.60
2018-09-19T09:51:18.571Z,3.80
2018-09-19T09:53:22.253Z,3.90
2018-09-19T09:55:25.908Z,3.70
2018-09-19T09:57:29.584Z,3.60
2018-09-19T09:59:36.097Z,4.40
2018-09-19T10:01:39.825Z,3.70
2018-09-19T10:03:43.499Z,3.60
2018-09-19T10:05:47.196Z,3.53
2018-09-19T10:07:50.867Z,3.50
2018-09-19T10:09:54.600Z,3.83
2018-09-19T10:11:58.284Z,3.63
2018-09-19T10:14:01.964Z,3.17
2018-09-19T10:16:05.810Z,3.33
2018-09-19T10:18:09.494Z,3.27
2018-09-19T10:20:13.137Z,3.37
2018-09-19T10:22:16.942Z,4.10
2018-09-19T10:24:20.602Z,3.43
2018-09-19T10:26:24.299Z,3.50
2018-09-19T10:28:27.991Z,3.50
2018-09-19T10:30:31.644Z,3.73
2018-09-19T10:32:35.297Z,3.70
2018-09-19T10:34:38.932Z,3.63
2018-09-19T10:36:42.606Z,3.60
2018-09-19T10:38:46.275Z,3.47
2018-09-19T10:40:49.972Z,3.73
2018-09-19T10:42:53.644Z,3.30
2018-09-19T10:44:57.291Z,3.67
2018-09-19T10:47:00.969Z,3.37
2018-09-19T10:49:04.619Z,3.47
2018-09-19T10:51:08.273Z,3.30
2018-09-19T10:53:12.064Z,3.87
2018-09-19T10:55:15.751Z,4.10
2018-09-19T10:57:19.545Z,3.83
2018-09-19T10:59:23.195Z,3.73
2018-09-19T11:01:26.842Z,3.87
2018-09-19T11:03:30.523Z,3.53
2018-09-19T11:05:34.182Z,3.80
2018-09-19T11:07:37.851Z,3.47
2018-09-19T11:09:41.480Z,3.70
2018-09-19T11:11:45.133Z,3.70
2018-09-19T11:13:49.188Z,3.57
2018-09-19T11:15:52.870Z,4.00
2018-09-19T11:17:56.549Z,3.60
2018-09-19T11:20:00.190Z,3.70
2018-09-19T11:22:03.874Z,3.80
2018-09-19T11:24:08.509Z,3.47
2018-09-19T11:26:12.378Z,3.53
2018-09-19T11:28:16.199Z,3.80
2018-09-19T11:30:19.922Z,3.40
2018-09-19T11:32:23.787Z,3.60
2018-09-19T11:34:27.557Z,3.73
2018-09-19T11:36:31.297Z,3.97
2018-09-19T11:38:35.012Z,3.50
2018-09-19T11:40:38.841Z,3.93
2018-09-19T11:42:42.552Z,2.93
2018-09-19T11:44:47.192Z,3.30
2018-09-19T11:46:50.844Z,3.47
2018-09-19T11:48:54.514Z,3.40
2018-09-19T11:50:58.384Z,3.47
2018-09-19T11:53:02.198Z,4.10
2018-09-19T11:55:05.885Z,3.00
2018-09-19T11:57:09.579Z,3.43
2018-09-19T11:59:13.419Z,3.57
2018-09-19T12:01:17.104Z,3.37
2018-09-19T12:03:20.828Z,3.20
2018-09-19T12:05:24.631Z,3.03
2018-09-19T12:07:28.313Z,3.73
2018-09-19T12:09:33.484Z,3.40
2018-09-19T12:11:37.644Z,3.30
2018-09-19T12:13:42.278Z,4.43
2018-09-19T12:15:45.944Z,3.63
2018-09-19T12:17:49.650Z,3.47
2018-09-19T12:19:53.338Z,3.40
2018-09-19T12:21:57.080Z,3.50
2018-09-19T12:24:00.844Z,3.70
2018-09-19T12:26:04.572Z,3.33
2018-09-19T12:28:09.008Z,3.47
2018-09-19T12:30:12.772Z,6.23
2018-09-19T12:32:18.665Z,4.00
2018-09-19T12:34:25.470Z,3.50
2018-09-19T12:36:30.621Z,4.50
2018-09-19T12:38:34.884Z,3.80
2018-09-19T12:40:40.445Z,3.13
2018-09-19T12:42:44.172Z,3.60
2018-09-19T12:44:47.902Z,3.50
2018-09-19T12:46:52.097Z,3.37
2018-09-19T12:48:56.160Z,3.00
2018-09-19T12:50:59.985Z,3.37
2018-09-19T12:53:04.756Z,3.53
2018-09-19T12:55:09.076Z,3.50
2018-09-19T12:57:13.015Z,3.80
2018-09-19T12:59:17.403Z,2.70
2018-09-19T13:01:21.383Z,3.23
2018-09-19T13:03:25.284Z,3.50
2018-09-19T13:05:28.997Z,3.30
2018-09-19T13:07:32.833Z,3.50
2018-09-19T13:09:37.071Z,3.57
2018-09-19T13:11:42.006Z,3.70
2018-09-19T13:13:47.084Z,3.60
2018-09-19T13:15:50.813Z,3.20
2018-09-19T13:17:54.850Z,3.60
2018-09-19T13:19:59.185Z,3.70
2018-09-19T13:22:02.978Z,4.50
2018-09-19T13:24:06.706Z,3.60
2018-09-19T13:26:10.408Z,3.33
2018-09-19T13:28:14.331Z,3.50
2018-09-19T13:30:18.773Z,3.63
2018-09-19T13:32:23.266Z,3.80
2018-09-19T13:34:26.997Z,3.40
2018-09-19T13:36:30.833Z,3.37
2018-09-19T13:38:34.567Z,3.90
2018-09-19T13:40:41.566Z,3.60
2018-09-19T13:42:49.676Z,3.10
2018-09-19T13:44:57.096Z,3.30
2018-09-19T13:47:05.514Z,3.50
2018-09-19T13:49:22.350Z,3.27
2018-09-19T13:51:32.031Z,4.00
2018-09-19T13:56:21.318Z,3.70
2018-09-19T13:58:34.980Z,3.10
2018-09-19T14:00:39.636Z,3.70
2018-09-19T14:02:50.604Z,3.77
2018-09-19T14:05:03.337Z,3.97
2018-09-19T14:07:18.221Z,3.80
2018-09-19T14:09:31.140Z,4.13
2018-09-19T14:11:42.268Z,3.90
2018-09-19T14:13:52.053Z,3.87
2018-09-19T14:16:02.013Z,4.03
2018-09-19T14:18:17.107Z,4.10
2018-09-19T14:20:28.647Z,3.80
2018-09-19T14:22:36.756Z,3.70
2018-09-19T14:24:48.354Z,4.00
2018-09-19T14:26:54.452Z,4.27
2018-09-19T14:28:59.122Z,3.70
2018-09-19T14:31:06.963Z,4.20
2018-09-19T14:33:11.629Z,4.40
2018-09-19T14:35:21.320Z,4.10
2018-09-19T14:37:27.355Z,4.27
2018-09-19T14:39:34.323Z,4.17
2018-09-19T14:41:44.518Z,3.87
2018-09-19T14:43:53.635Z,3.57
2018-09-19T14:46:01.398Z,4.30
2018-09-19T14:48:13.398Z,4.13
2018-09-19T14:50:20.723Z,4.10
2018-09-19T14:52:31.045Z,4.20
2018-09-19T14:54:41.892Z,3.83
2018-09-19T14:56:49.098Z,3.80
2018-09-19T14:58:56.460Z,4.13
2018-09-19T15:01:04.245Z,4.30
2018-09-19T15:03:16.139Z,3.80
2018-09-19T15:05:25.658Z,4.27
2018-09-19T15:07:34.340Z,3.83
2018-09-19T15:09:43.866Z,3.50
2018-09-19T15:11:47.958Z,3.90
2018-09-19T15:13:51.736Z,4.23
2018-09-19T15:16:00.578Z,3.63
2018-09-19T15:18:07.433Z,3.80
2018-09-19T15:20:16.853Z,3.63
2018-09-19T15:22:24.225Z,4.00
2018-09-19T15:24:33.803Z,3.67
2018-09-19T15:26:39.945Z,4.37
2018-09-19T15:28:50.281Z,4.10
2018-09-19T15:30:59.051Z,4.27
2018-09-19T15:33:05.176Z,4.23
2018-09-19T15:35:10.151Z,4.10
2018-09-19T15:37:16.202Z,4.10
2018-09-19T15:39:20.699Z,3.90
2018-09-19T15:41:24.588Z,4.40
2018-09-19T15:43:28.423Z,4.00
2018-09-19T15:45:32.492Z,4.37
2018-09-19T15:47:36.396Z,3.60
2018-09-19T15:49:40.539Z,3.60
2018-09-19T15:51:45.876Z,4.30
2018-09-19T15:53:49.799Z,4.17
2018-09-19T15:55:53.625Z,3.83
2018-09-19T15:57:57.273Z,4.40
2018-09-19T16:00:01.321Z,4.03
2018-09-19T16:02:05.118Z,4.23
2018-09-19T16:04:09.202Z,4.00
2018-09-19T16:06:13.240Z,4.57
2018-09-19T16:08:16.851Z,4.50
2018-09-19T16:10:21.779Z,3.47
2018-09-19T16:12:25.589Z,4.37
2018-09-19T16:14:29.245Z,4.00
2018-09-19T16:16:33.045Z,3.90
2018-09-19T16:18:36.943Z,3.97
2018-09-19T16:20:41.044Z,3.73
2018-09-19T16:22:45.076Z,4.10
2018-09-19T16:24:53.535Z,3.97
2018-09-19T16:26:57.463Z,4.30
2018-09-19T16:29:02.104Z,4.23
2018-09-19T16:31:06.786Z,4.27
2018-09-19T16:33:10.602Z,3.90
2018-09-19T16:35:14.743Z,4.30
2018-09-19T16:37:19.726Z,4.13
2018-09-19T16:39:23.718Z,3.90
2018-09-19T16:41:27.520Z,4.47
2018-09-19T16:43:31.236Z,4.40
2018-09-19T16:45:35.051Z,3.40
2018-09-19T16:47:38.692Z,3.77
2018-09-19T16:49:42.572Z,3.90
2018-09-19T16:51:46.449Z,3.47
2018-09-19T16:53:50.180Z,4.40
2018-09-19T16:55:53.819Z,4.37
2018-09-19T16:57:57.465Z,3.70
2018-09-19T17:00:01.289Z,4.00
2018-09-19T17:02:05.268Z,3.67
2018-09-19T17:04:09.027Z,4.13
2018-09-19T17:06:12.677Z,4.17
2018-09-19T17:08:16.456Z,4.00
2018-09-19T17:10:20.048Z,4.10
2018-09-19T17:12:23.802Z,4.33
2018-09-19T17:14:27.560Z,4.07
2018-09-19T17:16:31.309Z,4.40
2018-09-19T17:18:35.139Z,4.00
2018-09-19T17:20:39.290Z,3.50
2018-09-19T17:22:43.028Z,4.37
2018-09-19T17:24:46.769Z,4.43
2018-09-19T17:26:51.335Z,3.67
2018-09-19T17:28:55.112Z,4.33
2018-09-19T17:30:58.948Z,4.13
2018-09-19T17:33:02.804Z,4.23
2018-09-19T17:35:06.741Z,4.00
2018-09-19T17:37:10.484Z,4.80
2018-09-19T17:39:14.239Z,5.57
2018-09-19T17:41:18.087Z,4.93
2018-09-19T17:43:23.057Z,5.00
2018-09-19T17:45:27.075Z,4.47
2018-09-19T17:47:31.741Z,4.70
2018-09-19T17:49:35.842Z,4.50
2018-09-19T17:51:39.695Z,4.63
2018-09-19T17:53:43.552Z,4.13
2018-09-19T17:55:47.300Z,5.10
2018-09-19T17:57:51.219Z,4.33
2018-09-19T17:59:54.981Z,4.93
2018-09-19T18:02:00.621Z,4.97
2018-09-19T18:04:04.635Z,5.63
2018-09-19T18:06:08.447Z,5.17
2018-09-19T18:08:16.764Z,4.70
2018-09-19T18:10:20.524Z,5.20
2018-09-19T18:12:29.885Z,4.60
2018-09-19T18:14:37.230Z,5.13
2018-09-19T18:16:44.908Z,5.40
2018-09-19T18:18:48.977Z,5.00
2018-09-19T18:20:52.903Z,4.73
2018-09-19T18:22:56.942Z,5.57
2018-09-19T18:25:00.785Z,5.00
2018-09-19T18:27:04.625Z,4.47
2018-09-19T18:29:08.444Z,4.93
2018-09-19T18:31:13.025Z,5.00
2018-09-19T18:33:17.062Z,4.87
2018-09-19T18:35:20.826Z,5.37
2018-09-19T18:37:24.566Z,4.80
2018-09-19T18:39:30.353Z,4.90
2018-09-19T18:41:35.385Z,4.50
2018-09-19T18:43:39.303Z,5.17
2018-09-19T18:45:43.248Z,4.60
2018-09-19T18:47:47.995Z,4.47
2018-09-19T18:49:52.829Z,4.83
2018-09-19T18:51:56.723Z,5.23
2018-09-19T18:54:01.498Z,5.37
2018-09-19T18:56:05.343Z,4.90
2018-09-19T18:58:10.056Z,4.77
2018-09-19T19:00:13.811Z,5.00
2018-09-19T19:02:18.201Z,4.73
2018-09-19T19:04:24.535Z,5.60
2018-09-19T19:06:30.505Z,5.20
2018-09-19T19:08:35.041Z,5.80
2018-09-19T19:10:40.904Z,5.77
2018-09-19T19:12:45.127Z,6.00
2018-09-19T19:14:50.701Z,5.50
2018-09-19T19:16:56.989Z,4.83
2018-09-19T19:19:08.447Z,5.33
2018-09-19T19:21:17.284Z,5.20
2018-09-19T19:23:23.351Z,5.57
2018-09-19T19:25:29.672Z,5.23
2018-09-19T19:27:36.079Z,5.70
2018-09-19T19:29:41.835Z,5.10
2018-09-19T19:31:47.296Z,5.50
2018-09-19T19:33:53.345Z,5.57
2018-09-19T19:36:01.800Z,4.93
2018-09-19T19:38:08.715Z,5.57
2018-09-19T19:40:14.045Z,5.60
2018-09-19T19:42:18.016Z,5.27
2018-09-19T19:44:22.089Z,5.03
2018-09-19T19:46:26.030Z,5.53
2018-09-19T19:48:30.030Z,4.90
2018-09-19T19:50:34.025Z,5.23
2018-09-19T19:52:40.186Z,5.60
2018-09-19T19:54:44.207Z,4.90
2018-09-19T19:56:48.365Z,5.63
2018-09-19T19:58:52.212Z,6.10
2018-09-19T20:00:56.226Z,6.07
2018-09-19T20:03:00.048Z,5.20
2018-09-19T20:05:04.184Z,4.97
2018-09-19T20:07:08.032Z,5.40
2018-09-19T20:09:11.977Z,5.43
2018-09-19T20:11:15.759Z,5.50
2018-09-19T20:13:19.687Z,6.20
2018-09-19T20:15:23.707Z,5.50
2018-09-19T20:17:27.484Z,5.90
2018-09-19T20:19:31.416Z,6.20
2018-09-19T20:21:35.352Z,5.53
2018-09-19T20:23:39.868Z,5.90
2018-09-19T20:25:43.752Z,5.57
2018-09-19T20:27:47.759Z,6.40
2018-09-19T20:29:51.744Z,6.00
2018-09-19T20:31:55.607Z,5.93
2018-09-19T20:33:59.618Z,5.90
2018-09-19T20:36:03.463Z,5.80
2018-09-19T20:38:07.337Z,6.00
2018-09-19T20:40:11.242Z,6.13
2018-09-19T20:42:14.979Z,6.40
2018-09-19T20:44:19.101Z,5.93
2018-09-19T20:46:22.913Z,6.10
2018-09-19T20:48:26.818Z,5.77
2018-09-19T20:50:30.618Z,6.20
2018-09-19T20:52:34.735Z,6.30
2018-09-19T20:54:38.615Z,6.37
2018-09-19T20:56:42.353Z,5.70
2018-09-19T20:58:46.111Z,5.77
2018-09-19T21:00:49.968Z,5.67
2018-09-19T21:02:53.751Z,5.23
2018-09-19T21:04:57.469Z,5.73
2018-09-19T21:07:01.312Z,5.93
2018-09-19T21:09:06.187Z,5.97
2018-09-19T21:11:10.005Z,6.17
2018-09-19T21:13:13.602Z,5.67
2018-09-19T21:15:17.400Z,6.97
2018-09-19T21:17:25.444Z,6.50
2018-09-19T21:19:30.274Z,6.83
2018-09-19T21:21:34.608Z,6.30
2018-09-19T21:23:39.197Z,6.50
2018-09-19T21:25:42.977Z,7.07
2018-09-19T21:27:46.798Z,6.67
2018-09-19T21:29:50.529Z,8.13
2018-09-19T21:31:54.258Z,8.70
2018-09-19T21:33:58.008Z,8.23
2018-09-19T21:36:01.946Z,8.83
2018-09-19T21:38:05.714Z,8.40
2018-09-19T21:40:09.878Z,8.57
2018-09-19T21:42:13.700Z,7.90
2018-09-19T21:44:17.361Z,8.23
2018-09-19T21:46:21.085Z,7.93
2018-09-19T21:48:24.764Z,7.30
2018-09-19T21:50:28.539Z,7.37
2018-09-19T21:52:32.278Z,6.90
2018-09-19T21:54:35.994Z,7.30
2018-09-19T21:56:39.807Z,6.67
2018-09-19T21:58:43.544Z,7.77
2018-09-19T22:01:52.231Z,6.90
2018-09-19T22:03:56.148Z,7.63
2018-09-19T22:05:59.905Z,6.50
2018-09-19T22:08:03.564Z,7.03
2018-09-19T22:10:07.368Z,7.50
2018-09-19T22:12:11.895Z,7.47
2018-09-19T22:14:15.551Z,7.10
2018-09-19T22:16:19.218Z,6.97
2018-09-19T22:18:23.205Z,6.93
2018-09-19T22:20:27.082Z,6.90
2018-09-19T22:22:30.849Z,6.80
2018-09-19T22:24:34.888Z,7.10
2018-09-19T22:26:38.646Z,7.10
2018-09-19T22:28:42.410Z,6.67
2018-09-19T22:30:47.559Z,6.40
2018-09-19T22:32:53.138Z,7.00
2018-09-19T22:34:59.520Z,7.00
2018-09-19T22:37:04.686Z,7.07
2018-09-19T22:39:09.937Z,6.43
2018-09-19T22:41:13.688Z,6.63
2018-09-19T22:43:17.480Z,6.87
2018-09-19T22:45:21.148Z,6.20
2018-09-19T22:47:24.797Z,6.73
2018-09-19T22:49:28.438Z,7.10
2018-09-19T22:51:32.155Z,6.87
2018-09-19T22:53:35.823Z,6.90
2018-09-19T22:55:39.500Z,6.50
2018-09-19T22:57:43.221Z,6.40
2018-09-19T22:59:46.883Z,7.10
2018-09-19T23:01:50.550Z,6.93
2018-09-19T23:03:54.231Z,7.60
2018-09-19T23:05:57.918Z,7.43
2018-09-19T23:08:01.576Z,7.50
2018-09-19T23:10:05.318Z,6.57
2018-09-19T23:12:09.106Z,7.33
2018-09-19T23:14:12.781Z,7.40
2018-09-19T23:16:16.409Z,7.80
2018-09-19T23:18:20.218Z,6.67
2018-09-19T23:20:23.818Z,7.03
2018-09-19T23:22:27.520Z,7.10
2018-09-19T23:24:31.230Z,7.60
2018-09-19T23:26:34.877Z,7.80
2018-09-19T23:28:38.471Z,7.40
2018-09-19T23:30:43.214Z,7.77
2018-09-19T23:32:46.804Z,7.33
2018-09-19T23:34:50.414Z,6.40
2018-09-19T23:36:54.077Z,7.40
2018-09-19T23:38:57.682Z,7.30
2018-09-19T23:41:01.359Z,7.60
2018-09-19T23:43:05.071Z,7.70
2018-09-19T23:45:09.726Z,7.80
2018-09-19T23:47:13.375Z,7.20
2018-09-19T23:49:17.015Z,7.67
2018-09-19T23:51:20.703Z,8.00
2018-09-19T23:53:24.363Z,8.80
2018-09-19T23:55:28.024Z,9.40
2018-09-19T23:57:31.723Z,9.47
2018-09-19T23:59:35.354Z,8.90
